KYKN/YKN METAR and TAF weather

Enter ICAO airport designator
Station Type Date Time Source
KYKN METAR 2021/05/15 01:56 UTC NOAA

KYKN 150156Z AUTO 13003KT 10SM OVC110 19/10 A3002 RMK AO2 SLP176 T01890100


Station Type Date Time Source
KYKN Decoded METAR 2021/05/15 01:56 UTC NOAA

Yankton, Chan Gurney Municipal Airport, SD, United States (KYKN) 42-55N 097-23W
May 14, 2021 - 09:56 PM EDT / 2021.05.15 0156 UTC
Wind: from the SE (130 degrees) at 3 MPH (3 KT):0
Visibility: 10 mile(s):0
Sky conditions: overcast
Temperature: 66.0 F (18.9 C)
Dew Point: 50.0 F (10.0 C)
Relative Humidity: 56%
Pressure (altimeter): 30.02 in. Hg (1016 hPa)
ob: KYKN 150156Z AUTO 13003KT 10SM OVC110 19/10 A3002 RMK AO2 SLP176 T01890100
cycle: 2

Station Type Date Time Source
KYKN TAF UTC NOAA

Error!

Example: see airport list